sensor_id;sensor_type;location;lat;lon;timestamp;temperature;humidity
12907;DHT22;6521;50.498;8.474;2023-07-29T00:00:49;17.84;91.22
12907;DHT22;6521;50.498;8.474;2023-07-29T00:03:20;17.82;91.29
12907;DHT22;6521;50.498;8.474;2023-07-29T00:05:50;17.85;91.31
12907;DHT22;6521;50.498;8.474;2023-07-29T00:08:21;17.86;91.25
12907;DHT22;6521;50.498;8.474;2023-07-29T00:10:51;17.89;91.28
12907;DHT22;6521;50.498;8.474;2023-07-29T00:13:22;17.89;91.36
12907;DHT22;6521;50.498;8.474;2023-07-29T00:15:54;17.95;91.19
12907;DHT22;6521;50.498;8.474;2023-07-29T00:18:26;17.91;91.15
12907;DHT22;6521;50.498;8.474;2023-07-29T00:20:58;17.92;91.17
12907;DHT22;6521;50.498;8.474;2023-07-29T00:23:29;17.89;91.21
12907;DHT22;6521;50.498;8.474;2023-07-29T00:26:00;17.93;91.13
12907;DHT22;6521;50.498;8.474;2023-07-29T00:28:31;17.93;91.15
12907;DHT22;6521;50.498;8.474;2023-07-29T00:31:02;17.93;91.14
12907;DHT22;6521;50.498;8.474;2023-07-29T00:33:32;17.95;91.12
12907;DHT22;6521;50.498;8.474;2023-07-29T00:36:03;17.95;91.06
12907;DHT22;6521;50.498;8.474;2023-07-29T00:38:34;17.96;91.05
12907;DHT22;6521;50.498;8.474;2023-07-29T00:41:05;17.99;90.93
12907;DHT22;6521;50.498;8.474;2023-07-29T00:43:37;17.99;90.98
12907;DHT22;6521;50.498;8.474;2023-07-29T00:46:09;18.01;91.04
12907;DHT22;6521;50.498;8.474;2023-07-29T00:48:40;18.01;90.99
12907;DHT22;6521;50.498;8.474;2023-07-29T00:51:11;18.03;90.96
12907;DHT22;6521;50.498;8.474;2023-07-29T00:53:42;18.03;90.98
12907;DHT22;6521;50.498;8.474;2023-07-29T00:56:13;18.05;90.93
12907;DHT22;6521;50.498;8.474;2023-07-29T00:58:44;18.05;90.96
12907;DHT22;6521;50.498;8.474;2023-07-29T01:01:14;18.05;90.96
12907;DHT22;6521;50.498;8.474;2023-07-29T01:03:45;18.06;90.95
12907;DHT22;6521;50.498;8.474;2023-07-29T01:09:07;18.05;90.90
12907;DHT22;6521;50.498;8.474;2023-07-29T01:11:55;18.03;90.96
12907;DHT22;6521;50.498;8.474;2023-07-29T01:14:39;18.03;90.93
12907;DHT22;6521;50.498;8.474;2023-07-29T01:17:22;18.05;90.97
12907;DHT22;6521;50.498;8.474;2023-07-29T01:20:08;18.01;90.97
12907;DHT22;6521;50.498;8.474;2023-07-29T01:22:42;17.98;90.92
12907;DHT22;6521;50.498;8.474;2023-07-29T01:25:13;17.98;90.92
12907;DHT22;6521;50.498;8.474;2023-07-29T01:27:46;17.93;90.97
12907;DHT22;6521;50.498;8.474;2023-07-29T01:30:22;17.91;91.01
12907;DHT22;6521;50.498;8.474;2023-07-29T01:33:06;17.88;91.09
12907;DHT22;6521;50.498;8.474;2023-07-29T01:35:47;17.89;91.10
12907;DHT22;6521;50.498;8.474;2023-07-29T01:38:24;17.89;91.18
12907;DHT22;6521;50.498;8.474;2023-07-29T01:41:04;17.88;91.14
12907;DHT22;6521;50.498;8.474;2023-07-29T01:43:37;17.85;91.09
12907;DHT22;6521;50.498;8.474;2023-07-29T01:46:14;17.88;91.15
12907;DHT22;6521;50.498;8.474;2023-07-29T01:48:45;17.88;91.12
12907;DHT22;6521;50.498;8.474;2023-07-29T01:51:18;17.82;91.19
12907;DHT22;6521;50.498;8.474;2023-07-29T01:53:49;17.79;91.16
12907;DHT22;6521;50.498;8.474;2023-07-29T01:56:20;17.77;91.23
12907;DHT22;6521;50.498;8.474;2023-07-29T01:58:57;17.75;91.29
12907;DHT22;6521;50.498;8.474;2023-07-29T02:01:32;17.75;91.32
12907;DHT22;6521;50.498;8.474;2023-07-29T02:04:03;17.77;91.41
12907;DHT22;6521;50.498;8.474;2023-07-29T02:06:33;17.77;91.44
12907;DHT22;6521;50.498;8.474;2023-07-29T02:09:05;17.79;91.54
12907;DHT22;6521;50.498;8.474;2023-07-29T02:11:36;17.81;91.47
12907;DHT22;6521;50.498;8.474;2023-07-29T02:14:07;17.81;91.46
12907;DHT22;6521;50.498;8.474;2023-07-29T02:16:37;17.88;91.38
12907;DHT22;6521;50.498;8.474;2023-07-29T02:19:09;17.91;91.27
12907;DHT22;6521;50.498;8.474;2023-07-29T02:21:40;17.91;91.28
12907;DHT22;6521;50.498;8.474;2023-07-29T02:24:10;17.89;91.27
12907;DHT22;6521;50.498;8.474;2023-07-29T02:26:41;17.91;91.33
12907;DHT22;6521;50.498;8.474;2023-07-29T02:29:12;17.91;91.25
12907;DHT22;6521;50.498;8.474;2023-07-29T02:31:43;17.89;91.25
12907;DHT22;6521;50.498;8.474;2023-07-29T02:34:15;17.88;91.28
12907;DHT22;6521;50.498;8.474;2023-07-29T02:36:45;17.86;91.40
12907;DHT22;6521;50.498;8.474;2023-07-29T02:39:17;17.85;91.50
12907;DHT22;6521;50.498;8.474;2023-07-29T02:41:48;17.79;91.64
12907;DHT22;6521;50.498;8.474;2023-07-29T02:44:20;17.82;91.70
12907;DHT22;6521;50.498;8.474;2023-07-29T02:46:52;17.84;91.69
12907;DHT22;6521;50.498;8.474;2023-07-29T02:49:27;17.91;91.60
12907;DHT22;6521;50.498;8.474;2023-07-29T02:51:58;17.92;91.56
12907;DHT22;6521;50.498;8.474;2023-07-29T02:54:29;17.92;91.55
12907;DHT22;6521;50.498;8.474;2023-07-29T02:57:00;17.98;91.46
12907;DHT22;6521;50.498;8.474;2023-07-29T02:59:32;18.03;91.31
12907;DHT22;6521;50.498;8.474;2023-07-29T03:02:03;18.03;91.31
12907;DHT22;6521;50.498;8.474;2023-07-29T03:04:33;18.06;91.21
12907;DHT22;6521;50.498;8.474;2023-07-29T03:07:07;18.14;90.91
12907;DHT22;6521;50.498;8.474;2023-07-29T03:09:37;18.12;90.94
12907;DHT22;6521;50.498;8.474;2023-07-29T03:12:08;18.17;90.69
12907;DHT22;6521;50.498;8.474;2023-07-29T03:14:39;18.13;90.67
12907;DHT22;6521;50.498;8.474;2023-07-29T03:17:12;18.16;90.67
12907;DHT22;6521;50.498;8.474;2023-07-29T03:19:43;18.14;90.65
12907;DHT22;6521;50.498;8.474;2023-07-29T03:22:15;18.09;90.77
12907;DHT22;6521;50.498;8.474;2023-07-29T03:24:46;18.06;90.83
12907;DHT22;6521;50.498;8.474;2023-07-29T03:27:21;18.06;90.92
12907;DHT22;6521;50.498;8.474;2023-07-29T03:29:52;18.08;90.93
12907;DHT22;6521;50.498;8.474;2023-07-29T03:32:25;18.09;90.87
12907;DHT22;6521;50.498;8.474;2023-07-29T03:34:56;18.06;90.90
12907;DHT22;6521;50.498;8.474;2023-07-29T03:37:29;18.06;90.86
12907;DHT22;6521;50.498;8.474;2023-07-29T03:39:59;18.03;90.96
12907;DHT22;6521;50.498;8.474;2023-07-29T03:42:30;18.01;90.92
12907;DHT22;6521;50.498;8.474;2023-07-29T03:45:01;17.99;90.95
12907;DHT22;6521;50.498;8.474;2023-07-29T03:47:33;17.98;91.00
12907;DHT22;6521;50.498;8.474;2023-07-29T03:50:05;17.96;91.13
12907;DHT22;6521;50.498;8.474;2023-07-29T03:52:36;17.95;91.19
12907;DHT22;6521;50.498;8.474;2023-07-29T03:55:08;17.95;91.23
12907;DHT22;6521;50.498;8.474;2023-07-29T03:57:38;17.98;91.36
12907;DHT22;6521;50.498;8.474;2023-07-29T04:00:09;17.99;91.42
12907;DHT22;6521;50.498;8.474;2023-07-29T04:02:45;17.99;91.49
12907;DHT22;6521;50.498;8.474;2023-07-29T04:05:19;18.02;91.41
12907;DHT22;6521;50.498;8.474;2023-07-29T04:07:52;18.05;91.46
12907;DHT22;6521;50.498;8.474;2023-07-29T04:10:24;18.08;91.28
12907;DHT22;6521;50.498;8.474;2023-07-29T04:12:54;18.08;91.30
12907;DHT22;6521;50.498;8.474;2023-07-29T04:15:25;18.12;91.32
12907;DHT22;6521;50.498;8.474;2023-07-29T04:17:56;18.09;91.36
12907;DHT22;6521;50.498;8.474;2023-07-29T04:20:28;18.12;91.36
12907;DHT22;6521;50.498;8.474;2023-07-29T04:22:58;18.16;91.35
12907;DHT22;6521;50.498;8.474;2023-07-29T04:25:32;18.16;91.29
12907;DHT22;6521;50.498;8.474;2023-07-29T04:28:02;18.20;91.20
12907;DHT22;6521;50.498;8.474;2023-07-29T04:30:35;18.22;91.14
12907;DHT22;6521;50.498;8.474;2023-07-29T04:33:06;18.23;91.00
12907;DHT22;6521;50.498;8.474;2023-07-29T04:35:37;18.20;90.91
12907;DHT22;6521;50.498;8.474;2023-07-29T04:38:08;18.22;90.96
12907;DHT22;6521;50.498;8.474;2023-07-29T04:40:39;18.26;90.89
12907;DHT22;6521;50.498;8.474;2023-07-29T04:43:09;18.25;90.87
12907;DHT22;6521;50.498;8.474;2023-07-29T04:45:43;18.23;90.89
12907;DHT22;6521;50.498;8.474;2023-07-29T04:48:14;18.22;90.93
12907;DHT22;6521;50.498;8.474;2023-07-29T04:50:46;18.25;90.88
12907;DHT22;6521;50.498;8.474;2023-07-29T04:53:17;18.26;90.83
12907;DHT22;6521;50.498;8.474;2023-07-29T04:55:48;18.29;90.75
12907;DHT22;6521;50.498;8.474;2023-07-29T04:58:18;18.28;90.82
12907;DHT22;6521;50.498;8.474;2023-07-29T05:00:49;18.32;90.79
12907;DHT22;6521;50.498;8.474;2023-07-29T05:03:20;18.30;90.71
12907;DHT22;6521;50.498;8.474;2023-07-29T05:05:51;18.37;90.75
12907;DHT22;6521;50.498;8.474;2023-07-29T05:08:24;18.36;90.73
12907;DHT22;6521;50.498;8.474;2023-07-29T05:10:55;18.43;90.71
12907;DHT22;6521;50.498;8.474;2023-07-29T05:13:26;18.49;90.62
12907;DHT22;6521;50.498;8.474;2023-07-29T05:15:57;18.51;90.53
12907;DHT22;6521;50.498;8.474;2023-07-29T05:18:28;18.53;90.57
12907;DHT22;6521;50.498;8.474;2023-07-29T05:20:58;18.54;90.39
12907;DHT22;6521;50.498;8.474;2023-07-29T05:23:29;18.57;90.22
12907;DHT22;6521;50.498;8.474;2023-07-29T05:26:02;18.59;90.23
12907;DHT22;6521;50.498;8.474;2023-07-29T05:28:34;18.60;90.07
12907;DHT22;6521;50.498;8.474;2023-07-29T05:31:04;18.60;90.10
12907;DHT22;6521;50.498;8.474;2023-07-29T05:33:35;18.67;89.99
12907;DHT22;6521;50.498;8.474;2023-07-29T05:36:07;18.71;89.76
12907;DHT22;6521;50.498;8.474;2023-07-29T05:38:38;18.72;89.73
12907;DHT22;6521;50.498;8.474;2023-07-29T05:41:10;18.72;89.63
12907;DHT22;6521;50.498;8.474;2023-07-29T05:43:41;18.78;89.43
12907;DHT22;6521;50.498;8.474;2023-07-29T05:46:14;18.81;89.48
12907;DHT22;6521;50.498;8.474;2023-07-29T05:48:45;18.84;89.40
12907;DHT22;6521;50.498;8.474;2023-07-29T05:51:16;18.91;89.36
12907;DHT22;6521;50.498;8.474;2023-07-29T05:53:46;18.97;89.13
12907;DHT22;6521;50.498;8.474;2023-07-29T05:56:17;19.00;89.01
12907;DHT22;6521;50.498;8.474;2023-07-29T05:58:51;19.02;88.71
12907;DHT22;6521;50.498;8.474;2023-07-29T06:01:22;19.00;88.77
12907;DHT22;6521;50.498;8.474;2023-07-29T06:03:53;18.95;88.72
12907;DHT22;6521;50.498;8.474;2023-07-29T06:06:23;18.94;88.87
12907;DHT22;6521;50.498;8.474;2023-07-29T06:08:57;18.97;88.81
12907;DHT22;6521;50.498;8.474;2023-07-29T06:11:28;18.98;88.78
12907;DHT22;6521;50.498;8.474;2023-07-29T06:13:59;18.95;88.83
12907;DHT22;6521;50.498;8.474;2023-07-29T06:16:29;19.00;88.96
12907;DHT22;6521;50.498;8.474;2023-07-29T06:19:00;19.00;88.93
12907;DHT22;6521;50.498;8.474;2023-07-29T06:21:31;19.00;89.04
12907;DHT22;6521;50.498;8.474;2023-07-29T06:24:05;19.02;89.31
12907;DHT22;6521;50.498;8.474;2023-07-29T06:26:35;19.08;89.18
12907;DHT22;6521;50.498;8.474;2023-07-29T06:29:07;19.02;89.24
12907;DHT22;6521;50.498;8.474;2023-07-29T06:31:38;18.97;89.42
12907;DHT22;6521;50.498;8.474;2023-07-29T06:34:11;18.94;89.72
12907;DHT22;6521;50.498;8.474;2023-07-29T06:36:42;18.88;89.93
12907;DHT22;6521;50.498;8.474;2023-07-29T06:39:15;18.80;90.10
12907;DHT22;6521;50.498;8.474;2023-07-29T06:41:46;18.78;90.21
12907;DHT22;6521;50.498;8.474;2023-07-29T06:44:17;18.72;90.04
12907;DHT22;6521;50.498;8.474;2023-07-29T06:46:48;18.74;90.33
12907;DHT22;6521;50.498;8.474;2023-07-29T06:49:19;18.75;90.52
12907;DHT22;6521;50.498;8.474;2023-07-29T06:51:49;18.72;90.58
12907;DHT22;6521;50.498;8.474;2023-07-29T06:54:24;18.68;90.75
12907;DHT22;6521;50.498;8.474;2023-07-29T06:56:56;18.65;90.68
12907;DHT22;6521;50.498;8.474;2023-07-29T06:59:26;18.63;90.97
12907;DHT22;6521;50.498;8.474;2023-07-29T07:01:57;18.63;90.98
12907;DHT22;6521;50.498;8.474;2023-07-29T07:04:28;18.63;91.04
12907;DHT22;6521;50.498;8.474;2023-07-29T07:06:58;18.64;91.22
12907;DHT22;6521;50.498;8.474;2023-07-29T07:09:29;18.59;91.25
12907;DHT22;6521;50.498;8.474;2023-07-29T07:12:00;18.59;91.33
12907;DHT22;6521;50.498;8.474;2023-07-29T07:14:31;18.63;91.29
12907;DHT22;6521;50.498;8.474;2023-07-29T07:17:01;18.63;91.40
12907;DHT22;6521;50.498;8.474;2023-07-29T07:19:33;18.63;91.49
12907;DHT22;6521;50.498;8.474;2023-07-29T07:22:04;18.60;91.55
12907;DHT22;6521;50.498;8.474;2023-07-29T07:24:35;18.63;91.61
12907;DHT22;6521;50.498;8.474;2023-07-29T07:27:13;18.67;91.68
12907;DHT22;6521;50.498;8.474;2023-07-29T07:29:44;18.75;91.64
12907;DHT22;6521;50.498;8.474;2023-07-29T07:32:14;18.84;91.62
12907;DHT22;6521;50.498;8.474;2023-07-29T07:34:45;18.92;91.47
12907;DHT22;6521;50.498;8.474;2023-07-29T07:37:16;18.98;91.45
12907;DHT22;6521;50.498;8.474;2023-07-29T07:39:47;19.12;91.20
12907;DHT22;6521;50.498;8.474;2023-07-29T07:42:20;19.18;90.94
12907;DHT22;6521;50.498;8.474;2023-07-29T07:44:53;19.19;90.98
12907;DHT22;6521;50.498;8.474;2023-07-29T07:47:25;19.25;90.64
12907;DHT22;6521;50.498;8.474;2023-07-29T07:49:55;19.25;90.56
12907;DHT22;6521;50.498;8.474;2023-07-29T07:52:27;19.26;90.66
12907;DHT22;6521;50.498;8.474;2023-07-29T07:54:58;19.33;90.78
12907;DHT22;6521;50.498;8.474;2023-07-29T07:57:31;19.42;90.63
12907;DHT22;6521;50.498;8.474;2023-07-29T08:00:01;19.43;90.11
12907;DHT22;6521;50.498;8.474;2023-07-29T08:02:43;19.48;89.81
12907;DHT22;6521;50.498;8.474;2023-07-29T08:05:14;19.46;89.81
12907;DHT22;6521;50.498;8.474;2023-07-29T08:07:46;19.48;89.65
12907;DHT22;6521;50.498;8.474;2023-07-29T08:10:16;19.48;90.02
12907;DHT22;6521;50.498;8.474;2023-07-29T08:12:47;19.63;89.97
12907;DHT22;6521;50.498;8.474;2023-07-29T08:15:25;19.83;89.83
12907;DHT22;6521;50.498;8.474;2023-07-29T08:17:57;20.00;89.76
12907;DHT22;6521;50.498;8.474;2023-07-29T08:20:27;20.25;89.79
12907;DHT22;6521;50.498;8.474;2023-07-29T08:22:58;20.42;89.50
12907;DHT22;6521;50.498;8.474;2023-07-29T08:25:29;20.66;88.04
12907;DHT22;6521;50.498;8.474;2023-07-29T08:27:59;20.75;86.38
12907;DHT22;6521;50.498;8.474;2023-07-29T08:30:30;20.83;85.95
12907;DHT22;6521;50.498;8.474;2023-07-29T08:33:01;20.87;85.05
12907;DHT22;6521;50.498;8.474;2023-07-29T08:35:31;20.85;84.93
12907;DHT22;6521;50.498;8.474;2023-07-29T08:38:02;20.92;84.29
12907;DHT22;6521;50.498;8.474;2023-07-29T08:40:42;20.87;83.62
12907;DHT22;6521;50.498;8.474;2023-07-29T08:43:16;20.82;83.17
12907;DHT22;6521;50.498;8.474;2023-07-29T08:45:49;20.72;82.77
12907;DHT22;6521;50.498;8.474;2023-07-29T08:48:27;20.86;82.90
12907;DHT22;6521;50.498;8.474;2023-07-29T08:51:01;21.00;83.23
12907;DHT22;6521;50.498;8.474;2023-07-29T08:53:34;21.24;81.71
12907;DHT22;6521;50.498;8.474;2023-07-29T08:56:06;21.44;80.93
12907;DHT22;6521;50.498;8.474;2023-07-29T08:58:39;21.54;80.50
12907;DHT22;6521;50.498;8.474;2023-07-29T09:01:09;21.54;79.12
12907;DHT22;6521;50.498;8.474;2023-07-29T09:03:41;21.58;76.03
12907;DHT22;6521;50.498;8.474;2023-07-29T09:06:13;21.75;76.74
12907;DHT22;6521;50.498;8.474;2023-07-29T09:08:45;21.91;76.94
12907;DHT22;6521;50.498;8.474;2023-07-29T09:11:16;21.92;77.58
12907;DHT22;6521;50.498;8.474;2023-07-29T09:13:50;21.99;74.86
12907;DHT22;6521;50.498;8.474;2023-07-29T09:16:21;22.12;71.43
12907;DHT22;6521;50.498;8.474;2023-07-29T09:18:53;22.20;72.25
12907;DHT22;6521;50.498;8.474;2023-07-29T09:21:24;22.40;71.72
12907;DHT22;6521;50.498;8.474;2023-07-29T09:23:57;22.63;72.48
12907;DHT22;6521;50.498;8.474;2023-07-29T09:26:28;22.53;70.37
12907;DHT22;6521;50.498;8.474;2023-07-29T09:29:01;22.42;70.91
12907;DHT22;6521;50.498;8.474;2023-07-29T09:31:31;22.26;69.44
12907;DHT22;6521;50.498;8.474;2023-07-29T09:34:04;22.28;70.43
12907;DHT22;6521;50.498;8.474;2023-07-29T09:36:36;22.42;71.30
12907;DHT22;6521;50.498;8.474;2023-07-29T09:39:11;22.59;70.33
12907;DHT22;6521;50.498;8.474;2023-07-29T09:41:47;22.70;70.06
12907;DHT22;6521;50.498;8.474;2023-07-29T09:44:17;22.87;70.17
12907;DHT22;6521;50.498;8.474;2023-07-29T09:46:49;23.22;70.36
12907;DHT22;6521;50.498;8.474;2023-07-29T09:49:22;23.39;68.61
12907;DHT22;6521;50.498;8.474;2023-07-29T09:51:55;23.53;67.86
12907;DHT22;6521;50.498;8.474;2023-07-29T09:54:30;23.33;67.15
12907;DHT22;6521;50.498;8.474;2023-07-29T09:57:07;23.29;68.22
12907;DHT22;6521;50.498;8.474;2023-07-29T09:59:38;23.39;66.84
12907;DHT22;6521;50.498;8.474;2023-07-29T10:02:16;23.45;67.40
12907;DHT22;6521;50.498;8.474;2023-07-29T10:04:48;23.45;67.00
12907;DHT22;6521;50.498;8.474;2023-07-29T10:07:19;23.41;66.68
12907;DHT22;6521;50.498;8.474;2023-07-29T10:09:52;23.45;66.40
12907;DHT22;6521;50.498;8.474;2023-07-29T10:12:24;23.28;66.74
12907;DHT22;6521;50.498;8.474;2023-07-29T10:14:58;23.22;66.80
12907;DHT22;6521;50.498;8.474;2023-07-29T10:17:30;23.21;66.42
12907;DHT22;6521;50.498;8.474;2023-07-29T10:20:05;23.49;66.87
12907;DHT22;6521;50.498;8.474;2023-07-29T10:22:42;23.69;65.20
12907;DHT22;6521;50.498;8.474;2023-07-29T10:25:16;23.63;64.93
12907;DHT22;6521;50.498;8.474;2023-07-29T10:27:49;23.45;64.84
12907;DHT22;6521;50.498;8.474;2023-07-29T10:30:24;23.38;65.01
12907;DHT22;6521;50.498;8.474;2023-07-29T10:32:58;23.29;65.77
12907;DHT22;6521;50.498;8.474;2023-07-29T10:35:29;23.04;65.93
12907;DHT22;6521;50.498;8.474;2023-07-29T10:38:01;22.91;66.52
12907;DHT22;6521;50.498;8.474;2023-07-29T10:40:52;22.78;67.75
12907;DHT22;6521;50.498;8.474;2023-07-29T10:51:30;22.32;67.38
12907;DHT22;6521;50.498;8.474;2023-07-29T10:54:14;22.14;66.39
12907;DHT22;6521;50.498;8.474;2023-07-29T10:56:49;21.99;67.33
12907;DHT22;6521;50.498;8.474;2023-07-29T11:01:57;21.48;70.99
12907;DHT22;6521;50.498;8.474;2023-07-29T11:04:29;21.14;73.70
12907;DHT22;6521;50.498;8.474;2023-07-29T11:07:18;20.87;75.75
12907;DHT22;6521;50.498;8.474;2023-07-29T11:10:00;20.79;76.93
12907;DHT22;6521;50.498;8.474;2023-07-29T11:12:50;20.93;78.24
12907;DHT22;6521;50.498;8.474;2023-07-29T11:15:24;21.28;78.88
12907;DHT22;6521;50.498;8.474;2023-07-29T11:18:00;21.68;77.82
12907;DHT22;6521;50.498;8.474;2023-07-29T11:20:32;21.88;75.44
12907;DHT22;6521;50.498;8.474;2023-07-29T11:23:03;22.57;74.23
12907;DHT22;6521;50.498;8.474;2023-07-29T11:25:34;23.14;72.28
12907;DHT22;6521;50.498;8.474;2023-07-29T11:28:06;23.70;68.87
12907;DHT22;6521;50.498;8.474;2023-07-29T11:30:39;24.16;68.89
12907;DHT22;6521;50.498;8.474;2023-07-29T11:33:10;24.42;66.64
12907;DHT22;6521;50.498;8.474;2023-07-29T11:35:44;24.65;64.03
12907;DHT22;6521;50.498;8.474;2023-07-29T11:38:16;24.95;64.88
12907;DHT22;6521;50.498;8.474;2023-07-29T11:40:58;25.31;62.16
12907;DHT22;6521;50.498;8.474;2023-07-29T11:43:29;25.48;62.43
12907;DHT22;6521;50.498;8.474;2023-07-29T11:46:00;25.77;62.66
12907;DHT22;6521;50.498;8.474;2023-07-29T11:48:32;26.15;61.71
12907;DHT22;6521;50.498;8.474;2023-07-29T11:51:04;26.32;60.49
12907;DHT22;6521;50.498;8.474;2023-07-29T11:53:36;26.39;57.79
12907;DHT22;6521;50.498;8.474;2023-07-29T11:56:07;26.52;56.27
12907;DHT22;6521;50.498;8.474;2023-07-29T11:58:38;26.67;56.06
12907;DHT22;6521;50.498;8.474;2023-07-29T12:01:09;26.94;55.92
12907;DHT22;6521;50.498;8.474;2023-07-29T12:03:40;27.32;54.79
12907;DHT22;6521;50.498;8.474;2023-07-29T12:06:11;27.46;53.09
12907;DHT22;6521;50.498;8.474;2023-07-29T12:08:42;27.50;53.86
12907;DHT22;6521;50.498;8.474;2023-07-29T12:11:14;27.39;53.14
12907;DHT22;6521;50.498;8.474;2023-07-29T12:13:46;27.14;56.54
12907;DHT22;6521;50.498;8.474;2023-07-29T12:16:17;27.58;56.60
12907;DHT22;6521;50.498;8.474;2023-07-29T12:18:50;27.76;55.10
12907;DHT22;6521;50.498;8.474;2023-07-29T12:21:21;28.06;54.98
12907;DHT22;6521;50.498;8.474;2023-07-29T12:23:52;28.47;54.41
12907;DHT22;6521;50.498;8.474;2023-07-29T12:26:27;28.45;52.74
12907;DHT22;6521;50.498;8.474;2023-07-29T12:28:58;28.68;51.80
12907;DHT22;6521;50.498;8.474;2023-07-29T12:31:32;28.83;51.97
12907;DHT22;6521;50.498;8.474;2023-07-29T12:34:03;28.79;52.03
12907;DHT22;6521;50.498;8.474;2023-07-29T12:41:50;27.60;53.05
12907;DHT22;6521;50.498;8.474;2023-07-29T12:44:23;27.53;51.55
12907;DHT22;6521;50.498;8.474;2023-07-29T12:46:54;27.50;54.41
12907;DHT22;6521;50.498;8.474;2023-07-29T12:49:25;27.53;53.62
12907;DHT22;6521;50.498;8.474;2023-07-29T12:51:59;27.58;52.49
12907;DHT22;6521;50.498;8.474;2023-07-29T12:54:30;27.79;51.08
12907;DHT22;6521;50.498;8.474;2023-07-29T12:57:01;28.01;54.09
12907;DHT22;6521;50.498;8.474;2023-07-29T12:59:31;28.55;52.08
12907;DHT22;6521;50.498;8.474;2023-07-29T13:02:02;28.76;50.79
12907;DHT22;6521;50.498;8.474;2023-07-29T13:04:33;28.40;49.19
12907;DHT22;6521;50.498;8.474;2023-07-29T13:07:04;27.99;49.69
12907;DHT22;6521;50.498;8.474;2023-07-29T13:09:35;27.31;52.24
12907;DHT22;6521;50.498;8.474;2023-07-29T13:12:06;26.64;53.17
12907;DHT22;6521;50.498;8.474;2023-07-29T13:14:37;26.31;54.58
12907;DHT22;6521;50.498;8.474;2023-07-29T13:17:08;25.89;58.29
12907;DHT22;6521;50.498;8.474;2023-07-29T13:19:39;25.67;56.45
12907;DHT22;6521;50.498;8.474;2023-07-29T13:22:09;25.51;58.65
12907;DHT22;6521;50.498;8.474;2023-07-29T13:24:40;26.01;58.85
12907;DHT22;6521;50.498;8.474;2023-07-29T13:27:11;26.63;54.06
12907;DHT22;6521;50.498;8.474;2023-07-29T13:29:42;26.63;54.32
12907;DHT22;6521;50.498;8.474;2023-07-29T13:32:14;26.37;52.95
12907;DHT22;6521;50.498;8.474;2023-07-29T13:34:45;25.89;53.93
12907;DHT22;6521;50.498;8.474;2023-07-29T13:37:17;25.41;55.83
12907;DHT22;6521;50.498;8.474;2023-07-29T13:39:47;25.07;56.74
12907;DHT22;6521;50.498;8.474;2023-07-29T13:42:18;24.86;58.33
12907;DHT22;6521;50.498;8.474;2023-07-29T13:44:49;24.69;58.74
12907;DHT22;6521;50.498;8.474;2023-07-29T13:47:19;24.45;59.43
12907;DHT22;6521;50.498;8.474;2023-07-29T13:49:50;24.13;61.81
12907;DHT22;6521;50.498;8.474;2023-07-29T13:52:21;23.77;66.69
12907;DHT22;6521;50.498;8.474;2023-07-29T13:54:52;23.28;69.26
12907;DHT22;6521;50.498;8.474;2023-07-29T13:57:22;22.90;72.19
12907;DHT22;6521;50.498;8.474;2023-07-29T13:59:53;22.71;72.87
12907;DHT22;6521;50.498;8.474;2023-07-29T14:02:24;22.43;73.71
12907;DHT22;6521;50.498;8.474;2023-07-29T14:04:57;22.22;74.75
12907;DHT22;6521;50.498;8.474;2023-07-29T14:07:29;22.08;76.39
12907;DHT22;6521;50.498;8.474;2023-07-29T14:10:00;22.02;77.10
12907;DHT22;6521;50.498;8.474;2023-07-29T14:12:31;21.96;77.03
12907;DHT22;6521;50.498;8.474;2023-07-29T14:15:04;21.91;77.60
12907;DHT22;6521;50.498;8.474;2023-07-29T14:17:35;21.79;77.33
12907;DHT22;6521;50.498;8.474;2023-07-29T14:20:08;21.72;77.12
12907;DHT22;6521;50.498;8.474;2023-07-29T14:22:39;21.64;75.60
12907;DHT22;6521;50.498;8.474;2023-07-29T14:25:11;21.79;77.53
12907;DHT22;6521;50.498;8.474;2023-07-29T14:27:42;21.89;76.07
12907;DHT22;6521;50.498;8.474;2023-07-29T14:30:12;22.08;76.21
12907;DHT22;6521;50.498;8.474;2023-07-29T14:32:44;22.22;74.37
12907;DHT22;6521;50.498;8.474;2023-07-29T14:35:14;22.60;73.62
12907;DHT22;6521;50.498;8.474;2023-07-29T14:37:45;23.04;70.65
12907;DHT22;6521;50.498;8.474;2023-07-29T14:40:16;23.14;71.94
12907;DHT22;6521;50.498;8.474;2023-07-29T14:42:46;23.08;70.48
12907;DHT22;6521;50.498;8.474;2023-07-29T14:45:17;23.01;70.82
12907;DHT22;6521;50.498;8.474;2023-07-29T14:47:48;22.91;70.69
12907;DHT22;6521;50.498;8.474;2023-07-29T14:50:18;22.83;70.78
12907;DHT22;6521;50.498;8.474;2023-07-29T14:52:49;22.67;70.62
12907;DHT22;6521;50.498;8.474;2023-07-29T14:55:20;22.61;70.94
12907;DHT22;6521;50.498;8.474;2023-07-29T14:57:51;22.60;71.25
12907;DHT22;6521;50.498;8.474;2023-07-29T15:00:21;22.56;72.71
12907;DHT22;6521;50.498;8.474;2023-07-29T15:02:52;22.51;72.25
12907;DHT22;6521;50.498;8.474;2023-07-29T15:05:23;22.47;73.43
12907;DHT22;6521;50.498;8.474;2023-07-29T15:07:53;22.35;73.13
12907;DHT22;6521;50.498;8.474;2023-07-29T15:10:24;22.24;73.43
12907;DHT22;6521;50.498;8.474;2023-07-29T15:12:55;22.08;72.95
12907;DHT22;6521;50.498;8.474;2023-07-29T15:15:26;21.91;73.36
12907;DHT22;6521;50.498;8.474;2023-07-29T15:17:57;21.72;72.51
12907;DHT22;6521;50.498;8.474;2023-07-29T15:20:31;21.58;73.53
12907;DHT22;6521;50.498;8.474;2023-07-29T15:23:04;21.53;73.61
12907;DHT22;6521;50.498;8.474;2023-07-29T15:25:37;21.45;74.00
12907;DHT22;6521;50.498;8.474;2023-07-29T15:28:09;21.53;74.59
12907;DHT22;6521;50.498;8.474;2023-07-29T15:30:40;21.55;73.95
12907;DHT22;6521;50.498;8.474;2023-07-29T15:33:10;21.65;73.59
12907;DHT22;6521;50.498;8.474;2023-07-29T15:35:41;21.84;74.28
12907;DHT22;6521;50.498;8.474;2023-07-29T15:38:12;22.06;73.06
12907;DHT22;6521;50.498;8.474;2023-07-29T15:40:42;22.35;72.00
12907;DHT22;6521;50.498;8.474;2023-07-29T15:43:13;22.37;72.28
12907;DHT22;6521;50.498;8.474;2023-07-29T15:45:44;22.32;72.47
12907;DHT22;6521;50.498;8.474;2023-07-29T15:48:16;22.26;72.81
12907;DHT22;6521;50.498;8.474;2023-07-29T15:50:48;22.16;73.02
12907;DHT22;6521;50.498;8.474;2023-07-29T15:53:18;22.10;74.22
12907;DHT22;6521;50.498;8.474;2023-07-29T15:55:50;22.02;75.33
12907;DHT22;6521;50.498;8.474;2023-07-29T15:58:23;21.89;77.46
12907;DHT22;6521;50.498;8.474;2023-07-29T16:00:56;21.65;80.13
12907;DHT22;6521;50.498;8.474;2023-07-29T16:03:26;21.61;80.62
12907;DHT22;6521;50.498;8.474;2023-07-29T16:05:57;21.69;81.68
12907;DHT22;6521;50.498;8.474;2023-07-29T16:08:28;22.05;82.08
12907;DHT22;6521;50.498;8.474;2023-07-29T16:10:59;22.36;81.12
12907;DHT22;6521;50.498;8.474;2023-07-29T16:13:32;22.47;81.28
12907;DHT22;6521;50.498;8.474;2023-07-29T16:16:03;22.64;80.83
12907;DHT22;6521;50.498;8.474;2023-07-29T16:18:34;22.77;79.53
12907;DHT22;6521;50.498;8.474;2023-07-29T16:21:05;22.94;77.01
12907;DHT22;6521;50.498;8.474;2023-07-29T16:23:36;22.87;77.92
12907;DHT22;6521;50.498;8.474;2023-07-29T16:26:07;22.86;77.53
12907;DHT22;6521;50.498;8.474;2023-07-29T16:28:37;22.81;76.98
12907;DHT22;6521;50.498;8.474;2023-07-29T16:31:08;22.75;76.71
12907;DHT22;6521;50.498;8.474;2023-07-29T16:33:40;22.80;76.81